Time;durP1;ratioP1;P1;durP2;ratioP2;P2;SDS_P1;SDS_P2;PMS_P1;PMS_P2;Temp;Humidity;BMP_temperature;BMP_pressure;BME280_temperature;BME280_humidity;BME280_pressure;Samples;Min_cycle;Max_cycle;Signal;HPM_P1;HPM_P2
2021/08/31 00:00:23;;;;;;;5.97;4.57;;;;;;;21.41;58.24;102538.69;4923646;29;20417;-75
2021/08/31 00:02:48;;;;;;;6.15;4.68;;;;;;;21.42;58.34;102543.09;4939218;29;20062;-75
2021/08/31 00:05:14;;;;;;;4.85;3.90;;;;;;;21.39;58.21;102538.69;4938997;29;20426;-75
2021/08/31 00:07:40;;;;;;;5.40;4.25;;;;;;;21.36;58.43;102532.50;4938910;29;20026;-74
2021/08/31 00:10:07;;;;;;;7.75;4.70;;;;;;;21.43;58.19;102549.22;4938950;29;20493;-76
2021/08/31 00:12:32;;;;;;;6.82;4.75;;;;;;;21.36;58.57;102536.00;4938803;29;20043;-75
2021/08/31 00:14:58;;;;;;;5.28;4.53;;;;;;;21.42;58.23;102547.47;4940058;29;20386;-74
2021/08/31 00:17:23;;;;;;;5.90;4.80;;;;;;;21.42;58.32;102545.72;4907231;29;20111;-77
2021/08/31 00:19:49;;;;;;;7.47;5.13;;;;;;;21.36;58.34;102537.75;4940089;29;20390;-76
2021/08/31 00:22:14;;;;;;;5.18;3.83;;;;;;;21.36;58.34;102535.13;4923059;29;20082;-75
2021/08/31 00:24:40;;;;;;;7.70;3.75;;;;;;;21.36;58.32;102535.13;4907291;29;20024;-74
2021/08/31 00:27:06;;;;;;;9.05;6.03;;;;;;;21.35;58.32;102541.25;4922875;29;20475;-74
2021/08/31 00:29:32;;;;;;;4.38;3.97;;;;;;;21.38;58.22;102542.19;4922523;29;20130;-74
2021/08/31 00:31:57;;;;;;;5.78;4.60;;;;;;;21.40;58.27;102550.09;4906862;29;20474;-74
2021/08/31 00:34:23;;;;;;;4.63;4.07;;;;;;;21.37;58.38;102540.41;4939951;29;20486;-75
2021/08/31 00:36:48;;;;;;;5.45;4.05;;;;;;;21.39;58.24;102548.31;4922416;29;20040;-78
2021/08/31 00:39:14;;;;;;;4.90;4.35;;;;;;;21.39;58.43;102559.75;4921856;29;20097;-75
2021/08/31 00:41:39;;;;;;;6.80;4.13;;;;;;;21.39;58.28;102561.47;4906828;29;20046;-75
2021/08/31 00:44:05;;;;;;;6.20;4.35;;;;;;;21.40;58.43;102560.63;4907219;29;20027;-75
2021/08/31 00:46:30;;;;;;;5.38;4.57;;;;;;;21.40;58.30;102560.63;4906624;29;20043;-75
2021/08/31 00:48:56;;;;;;;6.15;3.80;;;;;;;21.36;58.26;102548.28;4922201;29;20405;-75
2021/08/31 00:51:23;;;;;;;4.57;3.67;;;;;;;21.39;58.24;102556.22;4922153;29;20391;-76
2021/08/31 00:53:50;;;;;;;6.28;4.50;;;;;;;21.39;58.41;102557.09;4922158;29;20102;-74
2021/08/31 00:56:16;;;;;;;4.50;3.88;;;;;;;21.36;58.38;102546.53;4939389;29;20363;-76
2021/08/31 00:58:42;;;;;;;5.50;4.10;;;;;;;21.39;58.27;102559.75;4906624;29;20038;-75
2021/08/31 01:01:07;;;;;;;7.22;4.18;;;;;;;21.38;58.37;102555.34;4939425;29;20474;-74
2021/08/31 01:03:33;;;;;;;4.95;3.90;;;;;;;21.39;58.43;102556.22;4922281;29;20032;-75
2021/08/31 01:06:01;;;;;;;5.00;4.20;;;;;;;21.38;58.38;102563.22;4922086;29;20442;-75
2021/08/31 01:08:28;;;;;;;6.03;4.00;;;;;;;21.40;58.45;102558.00;4922125;29;20028;-75
2021/08/31 01:10:56;;;;;;;4.88;3.75;;;;;;;21.40;58.37;102558.00;4906001;29;20392;-76
2021/08/31 01:13:21;;;;;;;5.30;3.50;;;;;;;21.37;58.35;102557.94;4921810;29;20028;-74
2021/08/31 01:15:48;;;;;;;5.00;3.38;;;;;;;21.30;58.34;102554.34;4910040;29;20059;-75
2021/08/31 01:18:16;;;;;;;5.68;4.00;;;;;;;21.35;58.20;102563.19;4921845;29;20027;-76
2021/08/31 01:20:43;;;;;;;4.55;3.90;;;;;;;21.39;58.15;102572.00;4937647;29;20474;-76
2021/08/31 01:23:10;;;;;;;5.22;4.05;;;;;;;21.38;58.32;102568.50;4938721;29;20083;-75
2021/08/31 01:25:35;;;;;;;5.20;4.13;;;;;;;21.36;58.43;102564.97;4937428;29;20023;-75
2021/08/31 01:28:00;;;;;;;5.90;4.00;;;;;;;21.37;58.17;102571.09;4937406;29;20039;-76
2021/08/31 01:30:26;;;;;;;5.07;4.22;;;;;;;21.37;58.41;102571.09;4905837;29;20075;-75
2021/08/31 01:32:51;;;;;;;4.70;4.05;;;;;;;21.35;58.38;102564.94;4936976;29;20035;-75
2021/08/31 01:35:16;;;;;;;5.10;3.63;;;;;;;21.36;58.39;102580.75;4905813;29;20035;-75
2021/08/31 01:37:42;;;;;;;5.80;4.10;;;;;;;21.35;58.25;102578.97;4937435;29;20479;-74
2021/08/31 01:40:08;;;;;;;6.20;4.25;;;;;;;21.32;58.33;102572.78;4905638;29;20031;-74
2021/08/31 01:42:33;;;;;;;4.97;3.85;;;;;;;21.34;58.44;102581.59;4905817;29;20119;-75
2021/08/31 01:44:58;;;;;;;6.47;4.40;;;;;;;21.32;58.22;102584.22;4921251;29;20063;-74
2021/08/31 01:47:25;;;;;;;5.13;3.88;;;;;;;21.35;58.27;102580.72;4921157;29;20122;-77
2021/08/31 01:49:50;;;;;;;4.95;4.00;;;;;;;21.36;58.40;102580.75;4921111;29;20051;-74
2021/08/31 01:52:16;;;;;;;4.70;3.08;;;;;;;21.34;58.27;102579.84;4936666;29;20036;-76
2021/08/31 01:54:41;;;;;;;5.80;3.50;;;;;;;21.36;58.14;102582.50;4936884;29;20155;-75
2021/08/31 01:57:06;;;;;;;5.57;3.28;;;;;;;21.35;58.20;102578.97;4921082;29;20482;-75
2021/08/31 01:59:32;;;;;;;4.32;3.50;;;;;;;21.31;58.39;102577.19;4937215;29;20386;-75
2021/08/31 02:01:58;;;;;;;6.18;3.85;;;;;;;21.35;58.42;102586.88;4937031;29;20494;-75
2021/08/31 02:04:24;;;;;;;5.50;3.78;;;;;;;21.30;58.28;102567.50;4921013;29;20040;-75
2021/08/31 02:06:49;;;;;;;3.13;2.70;;;;;;;21.36;58.46;102579.88;4937670;29;20031;-76
2021/08/31 02:09:15;;;;;;;5.95;4.22;;;;;;;21.32;58.20;102576.31;4938028;29;20023;-75
2021/08/31 02:11:40;;;;;;;5.63;4.00;;;;;;;21.33;58.42;102577.19;4921642;29;20051;-75
2021/08/31 02:14:05;;;;;;;5.22;3.65;;;;;;;21.33;58.25;102578.06;4937913;29;20082;-77
2021/08/31 02:16:31;;;;;;;5.13;3.67;;;;;;;21.30;58.28;102575.41;4922082;29;20051;-77
2021/08/31 02:18:56;;;;;;;6.50;3.95;;;;;;;21.31;58.43;102578.94;4906635;29;20031;-75
2021/08/31 02:21:22;;;;;;;4.25;3.67;;;;;;;21.34;58.31;102584.22;4905087;29;20119;-76
2021/08/31 02:23:47;;;;;;;4.65;4.07;;;;;;;21.31;58.34;102578.94;4937474;29;20035;-76
2021/08/31 02:26:12;;;;;;;5.32;3.45;;;;;;;21.27;58.40;102570.13;4920493;29;20386;-75
2021/08/31 02:28:38;;;;;;;5.78;3.75;;;;;;;21.28;58.48;102578.91;4936451;29;20102;-75
2021/08/31 02:31:03;;;;;;;5.60;3.42;;;;;;;21.33;58.38;102587.72;4920151;29;20071;-77
2021/08/31 02:33:28;;;;;;;4.00;3.20;;;;;;;21.33;58.38;102583.34;4920328;29;20051;-74
2021/08/31 02:35:54;;;;;;;3.53;3.10;;;;;;;21.26;58.18;102571.00;4937148;29;20446;-75
2021/08/31 02:38:19;;;;;;;5.13;4.05;;;;;;;21.31;58.28;102579.81;4924092;29;20027;-75
2021/08/31 02:40:45;;;;;;;3.78;2.85;;;;;;;21.31;58.24;102578.94;4939888;29;20494;-75
2021/08/31 02:43:10;;;;;;;4.38;3.38;;;;;;;21.33;58.45;102583.34;4939793;29;20039;-74
2021/08/31 02:45:35;;;;;;;5.35;3.33;;;;;;;21.29;58.45;102575.41;4938979;29;20028;-75
2021/08/31 02:48:01;;;;;;;5.15;3.60;;;;;;;21.28;58.46;102576.28;4923636;29;20033;-74
2021/08/31 02:50:26;;;;;;;5.70;3.95;;;;;;;21.26;58.41;102567.50;4922862;29;20035;-78
2021/08/31 02:52:52;;;;;;;4.78;3.25;;;;;;;21.27;58.38;102566.63;4904334;29;20083;-76
2021/08/31 02:55:17;;;;;;;5.13;3.92;;;;;;;21.32;58.36;102575.44;4935975;29;20036;-74
2021/08/31 02:57:42;;;;;;;4.25;3.45;;;;;;;21.32;58.33;102583.31;4935822;29;20027;-75
2021/08/31 03:00:09;;;;;;;4.43;3.50;;;;;;;21.30;58.31;102580.66;4935726;29;20599;-75
2021/08/31 03:02:35;;;;;;;5.22;3.67;;;;;;;21.32;58.34;102572.78;4919777;29;20071;-75
2021/08/31 03:05:00;;;;;;;4.45;3.78;;;;;;;21.28;58.19;102573.66;4935590;29;20497;-75
2021/08/31 03:07:26;;;;;;;4.85;3.58;;;;;;;21.26;58.35;102575.38;4904241;29;20035;-75
2021/08/31 03:09:51;;;;;;;4.22;3.72;;;;;;;21.18;58.29;102556.81;4935571;29;20147;-77
2021/08/31 03:12:17;;;;;;;5.45;3.38;;;;;;;21.26;58.07;102570.13;4935643;29;20040;-75
2021/08/31 03:14:43;;;;;;;5.72;4.00;;;;;;;21.28;58.30;102578.91;4919394;29;20059;-76
2021/08/31 03:17:09;;;;;;;4.85;3.60;;;;;;;21.32;58.27;102585.97;4937122;29;20118;-77
2021/08/31 03:19:34;;;;;;;5.13;3.63;;;;;;;21.25;58.20;102574.50;4919680;29;20123;-74
2021/08/31 03:22:02;;;;;;;4.65;3.25;;;;;;;21.31;58.19;102587.69;4919893;29;20160;-76
2021/08/31 03:24:29;;;;;;;5.45;3.53;;;;;;;21.26;58.30;102575.38;4919851;29;20070;-74
2021/08/31 03:26:55;;;;;;;3.28;2.97;;;;;;;21.25;58.40;102574.50;4920203;29;20497;-75
2021/08/31 03:29:21;;;;;;;5.38;3.38;;;;;;;21.29;58.37;102584.16;4903961;29;20036;-76
2021/08/31 03:31:46;;;;;;;4.57;3.58;;;;;;;21.27;58.25;102585.94;4903851;29;20515;-76
2021/08/31 03:34:13;;;;;;;6.63;3.75;;;;;;;21.29;58.09;102583.31;4919873;29;20027;-75
2021/08/31 03:36:38;;;;;;;4.78;3.45;;;;;;;21.29;58.26;102586.78;4920186;29;20076;-76
2021/08/31 03:39:04;;;;;;;5.65;3.03;;;;;;;21.25;58.44;102585.03;4937418;29;20484;-76
2021/08/31 03:41:30;;;;;;;4.47;3.40;;;;;;;21.22;58.24;102573.56;4904327;29;20401;-75
2021/08/31 03:43:55;;;;;;;5.60;3.70;;;;;;;21.29;58.37;102588.56;4888876;29;20044;-75
2021/08/31 03:46:21;;;;;;;3.53;2.90;;;;;;;21.26;58.16;102586.78;4920164;29;20035;-77
2021/08/31 03:48:46;;;;;;;6.43;3.92;;;;;;;21.27;58.23;102583.28;4904745;29;20035;-77
2021/08/31 03:51:12;;;;;;;3.95;2.97;;;;;;;21.27;58.18;102585.03;4920097;29;20478;-75
2021/08/31 03:53:37;;;;;;;3.97;3.28;;;;;;;21.27;58.21;102588.56;4904519;29;20177;-75
2021/08/31 03:56:03;;;;;;;6.03;4.03;;;;;;;21.26;58.40;102592.06;4937289;29;20031;-74
2021/08/31 03:58:28;;;;;;;5.40;3.65;;;;;;;21.24;58.18;102583.25;4904569;29;20091;-75
2021/08/31 04:00:53;;;;;;;4.35;3.20;;;;;;;21.27;58.25;102585.94;4888756;29;20028;-76
2021/08/31 04:03:19;;;;;;;3.78;2.88;;;;;;;21.25;58.15;102578.88;4920071;29;20061;-76
2021/08/31 04:05:44;;;;;;;3.88;3.30;;;;;;;21.24;58.34;102572.72;4888642;29;20031;-74
2021/08/31 04:08:10;;;;;;;4.80;3.60;;;;;;;21.27;58.38;102588.56;4921883;29;20028;-75
2021/08/31 04:10:36;;;;;;;5.13;3.35;;;;;;;21.27;58.18;102593.81;4937987;29;20035;-76
2021/08/31 04:13:02;;;;;;;6.03;3.70;;;;;;;21.26;58.13;102586.78;4924531;29;20019;-80
2021/08/31 04:15:27;;;;;;;5.32;3.30;;;;;;;21.28;58.06;102599.97;4914305;29;20054;-75
2021/08/31 04:17:53;;;;;;;4.05;3.28;;;;;;;21.28;58.13;102599.97;4927389;29;20086;-75
2021/08/31 04:20:18;;;;;;;3.40;2.75;;;;;;;21.26;58.15;102596.44;4926946;29;20077;-75
2021/08/31 04:22:43;;;;;;;4.28;2.72;;;;;;;21.27;58.12;102599.09;4923816;29;20518;-75
2021/08/31 04:25:09;;;;;;;3.50;2.70;;;;;;;21.25;58.08;102594.66;4940195;29;20050;-74
2021/08/31 04:27:35;;;;;;;4.40;2.95;;;;;;;21.26;58.05;102602.56;4922976;29;20043;-74
2021/08/31 04:30:01;;;;;;;4.63;3.58;;;;;;;21.22;58.09;102599.88;4891261;29;20059;-76
2021/08/31 04:32:26;;;;;;;4.15;3.30;;;;;;;21.23;58.04;102599.03;4907297;29;20478;-76
2021/08/31 04:34:55;;;;;;;5.50;3.00;;;;;;;21.27;58.25;102604.34;4922596;29;20036;-72
2021/08/31 04:37:20;;;;;;;5.22;2.80;;;;;;;21.30;58.20;102609.63;4922613;29;20114;-73
2021/08/31 04:39:46;;;;;;;4.30;3.00;;;;;;;21.19;58.03;102587.56;4923050;29;20123;-75
2021/08/31 04:42:11;;;;;;;4.53;2.90;;;;;;;21.29;58.00;102599.09;4906768;29;20027;-74
2021/08/31 04:44:37;;;;;;;7.13;3.50;;;;;;;21.27;57.92;102596.44;4891122;29;20497;-75
2021/08/31 04:47:02;;;;;;;3.90;2.80;;;;;;;21.31;57.97;102613.13;4890877;29;20032;-75
2021/08/31 04:49:27;;;;;;;4.60;2.92;;;;;;;21.23;57.95;102599.03;4906708;29;20035;-74
2021/08/31 04:51:53;;;;;;;6.82;3.30;;;;;;;21.31;58.02;102610.50;4906457;29;20028;-74
2021/08/31 04:54:18;;;;;;;6.20;2.95;;;;;;;21.28;57.88;102605.22;4906460;29;20034;-73
2021/08/31 04:56:44;;;;;;;6.18;3.60;;;;;;;21.27;58.14;102606.09;4922380;29;20115;-73
2021/08/31 04:59:09;;;;;;;6.22;3.15;;;;;;;21.28;57.97;102616.63;4907250;29;20390;-79
2021/08/31 05:01:35;;;;;;;4.68;2.60;;;;;;;21.27;58.07;102608.72;4890946;29;20383;-80
2021/08/31 05:04:00;;;;;;;4.97;3.42;;;;;;;21.30;57.97;102624.53;4906750;29;20039;-81
2021/08/31 05:06:27;;;;;;;5.13;3.30;;;;;;;21.22;57.92;102616.56;4907135;29;20038;-80
2021/08/31 05:08:52;;;;;;;4.82;2.90;;;;;;;21.23;57.93;102612.19;4893708;29;20038;-79
2021/08/31 05:11:17;;;;;;;6.93;3.50;;;;;;;21.26;57.79;102620.09;4942000;29;20024;-79
2021/08/31 05:13:43;;;;;;;10.43;4.32;;;;;;;21.19;57.79;102613.00;4909343;29;20039;-81
2021/08/31 05:16:10;;;;;;;5.53;3.40;;;;;;;21.24;58.00;102622.72;4898376;29;20055;-80
2021/08/31 05:18:36;;;;;;;11.50;5.07;;;;;;;21.20;57.77;102617.41;4941169;29;20090;-80
2021/08/31 05:21:03;;;;;;;6.55;4.60;;;;;;;21.22;57.81;102623.56;4924677;29;20482;-74
2021/08/31 05:23:28;;;;;;;10.57;5.32;;;;;;;20.63;56.58;102624.53;4938055;29;20028;-73
2021/08/31 05:25:54;;;;;;;10.43;4.82;;;;;;;20.09;56.79;102626.25;4938939;29;20489;-74
2021/08/31 05:28:19;;;;;;;14.73;6.13;;;;;;;19.94;57.04;102635.66;4905691;29;20070;-72
2021/08/31 05:30:44;;;;;;;10.15;5.30;;;;;;;19.86;57.21;102620.63;4920929;29;20036;-72
2021/08/31 05:33:10;;;;;;;12.27;5.45;;;;;;;19.78;57.64;102633.59;4936936;29;20028;-74
2021/08/31 05:35:35;;;;;;;10.77;5.30;;;;;;;19.55;57.90;102633.19;4921505;29;20496;-72
2021/08/31 05:38:00;;;;;;;;;;;;;;;19.58;57.77;102640.22;4921578;29;20080;-73
2021/08/31 05:40:26;;;;;;;;;;;;;;;19.48;58.10;102635.59;4937446;29;20013;-75
2021/08/31 05:42:51;;;;;;;;;;;;;;;19.71;57.75;102643.97;4937567;29;20393;-80
2021/08/31 05:45:17;;;;;;;12.32;5.47;;;;;;;20.10;57.13;102633.28;4937845;29;19918;-80
2021/08/31 05:47:42;;;;;;;14.70;5.20;;;;;;;20.40;56.18;102635.53;4905964;29;20116;-79
2021/08/31 05:50:08;;;;;;;13.88;5.07;;;;;;;20.59;55.72;102635.84;4937237;29;20044;-77
2021/08/31 05:52:33;;;;;;;14.43;7.18;;;;;;;20.71;55.63;102640.41;4921390;29;20032;-80
2021/08/31 05:54:58;;;;;;;10.50;5.47;;;;;;;20.81;55.76;102654.53;4905669;29;20043;-79
2021/08/31 05:57:24;;;;;;;9.85;5.72;;;;;;;20.85;55.72;102644.09;4921525;29;20066;-79
2021/08/31 05:59:49;;;;;;;8.90;4.68;;;;;;;20.82;55.71;102637.91;4937146;29;20055;-80
2021/08/31 06:02:17;;;;;;;12.43;5.30;;;;;;;20.93;55.74;102660.84;4921313;29;20070;-83
2021/08/31 06:04:42;;;;;;;11.02;5.63;;;;;;;20.95;55.39;102656.50;4921672;29;20043;-82
2021/08/31 06:07:09;;;;;;;11.65;4.30;;;;;;;20.98;55.59;102659.19;4921704;29;20039;-82
2021/08/31 06:09:41;;;;;;;10.80;4.57;;;;;;;20.96;55.84;102647.75;4921229;29;20122;-82
2021/08/31 06:12:08;;;;;;;8.05;4.20;;;;;;;20.96;55.81;102655.66;4936800;29;20035;-81
2021/08/31 06:14:35;;;;;;;9.13;4.60;;;;;;;21.07;55.86;102661.03;4937661;29;20083;-80
2021/08/31 06:17:02;;;;;;;8.95;4.30;;;;;;;21.07;56.03;102662.78;4936684;29;20545;-82
2021/08/31 06:19:27;;;;;;;10.25;5.55;;;;;;;21.15;56.04;102663.78;4921156;29;20054;-80
2021/08/31 06:21:53;;;;;;;9.07;5.05;;;;;;;21.13;56.11;102665.53;4920888;29;20036;-81
2021/08/31 06:24:18;;;;;;;9.00;5.28;;;;;;;21.17;56.23;102662.03;4937990;29;20485;-81
2021/08/31 06:26:44;;;;;;;9.32;4.35;;;;;;;21.19;56.34;102670.88;4904943;29;20023;-81
2021/08/31 06:29:09;;;;;;;10.35;4.55;;;;;;;21.15;56.16;102669.94;4920680;29;20040;-81
2021/08/31 06:31:34;;;;;;;6.82;4.00;;;;;;;21.13;56.44;102668.16;4920798;29;20028;-82
2021/08/31 06:34:00;;;;;;;7.32;4.78;;;;;;;21.16;56.46;102668.19;4904796;29;20506;-81
2021/08/31 06:36:25;;;;;;;15.35;4.60;;;;;;;21.16;56.43;102670.81;4904105;29;20031;-82
2021/08/31 06:38:50;;;;;;;6.13;4.07;;;;;;;21.17;56.64;102669.94;4920794;29;20088;-80
2021/08/31 06:41:16;;;;;;;10.80;4.30;;;;;;;21.22;56.54;102677.06;4936178;29;20038;-80
2021/08/31 06:43:44;;;;;;;7.18;4.00;;;;;;;21.22;56.53;102677.06;4936151;29;20103;-81
2021/08/31 06:46:10;;;;;;;8.45;4.13;;;;;;;21.26;56.33;102680.63;4920664;29;20035;-84
2021/08/31 06:48:35;;;;;;;7.95;4.55;;;;;;;21.25;56.49;102671.84;4935987;29;20035;-81
2021/08/31 06:51:01;;;;;;;6.35;3.95;;;;;;;21.28;56.35;102673.66;4904130;29;20063;-81
2021/08/31 06:53:26;;;;;;;6.78;4.13;;;;;;;21.29;56.50;102671.00;4936129;29;20035;-80
2021/08/31 06:55:52;;;;;;;5.55;3.75;;;;;;;21.35;56.32;102678.09;4904062;29;20030;-81
2021/08/31 06:58:17;;;;;;;6.60;3.97;;;;;;;21.35;56.57;102671.09;4904251;29;20072;-79
2021/08/31 07:00:43;;;;;;;8.98;4.05;;;;;;;21.36;56.68;102678.13;4920079;29;20032;-81
2021/08/31 07:03:08;;;;;;;10.80;5.78;;;;;;;21.39;56.65;102682.56;4904267;29;20079;-80
2021/08/31 07:05:34;;;;;;;7.25;3.50;;;;;;;21.34;56.68;102679.84;4935824;29;20558;-80
2021/08/31 07:07:59;;;;;;;7.72;4.78;;;;;;;21.31;56.73;102673.66;4904022;29;20059;-80
2021/08/31 07:10:25;;;;;;;7.78;3.65;;;;;;;21.35;56.65;102683.38;4919502;29;20036;-81
2021/08/31 07:12:50;;;;;;;7.53;3.97;;;;;;;21.33;56.90;102682.47;4935991;29;20493;-79
2021/08/31 07:15:16;;;;;;;5.32;4.03;;;;;;;21.28;56.93;102677.16;4935735;29;20040;-79
2021/08/31 07:17:42;;;;;;;4.25;3.78;;;;;;;21.36;56.94;102693.91;4903879;29;20411;-81
2021/08/31 07:20:08;;;;;;;8.50;4.22;;;;;;;21.36;57.00;102687.78;4936760;29;20047;-80
2021/08/31 07:22:33;;;;;;;5.15;3.85;;;;;;;21.43;56.47;102699.25;4919629;29;20509;-78
2021/08/31 07:24:58;;;;;;;6.70;4.07;;;;;;;21.45;56.70;102695.75;4935496;29;20067;-80
2021/08/31 07:27:24;;;;;;;5.38;3.35;;;;;;;21.44;56.58;102696.63;4935572;29;20120;-80
2021/08/31 07:29:49;;;;;;;8.13;4.57;;;;;;;21.47;56.61;102699.31;4903797;29;20046;-80
2021/08/31 07:32:16;;;;;;;5.60;3.65;;;;;;;21.54;56.48;102705.53;4903654;29;20398;-78
2021/08/31 07:34:41;;;;;;;5.53;4.18;;;;;;;21.50;56.57;102690.56;4904152;29;20059;-76
2021/08/31 07:37:07;;;;;;;5.60;3.25;;;;;;;21.56;56.41;102709.94;4935530;29;20439;-81
2021/08/31 07:39:33;;;;;;;6.90;4.32;;;;;;;21.50;56.47;102691.44;4919572;29;20059;-80
2021/08/31 07:41:59;;;;;;;6.28;4.32;;;;;;;21.55;56.55;102710.78;4919354;29;20024;-80
2021/08/31 07:44:24;;;;;;;5.38;3.22;;;;;;;21.46;56.93;102697.53;4935147;29;20031;-78
2021/08/31 07:46:51;;;;;;;6.82;4.18;;;;;;;21.48;57.03;102703.72;4904480;29;20032;-79
2021/08/31 07:49:17;;;;;;;5.32;3.67;;;;;;;21.40;56.97;102705.38;4907926;29;20038;-80
2021/08/31 07:51:43;;;;;;;5.28;3.58;;;;;;;21.47;57.00;102714.22;4923486;29;20036;-80
2021/08/31 07:54:09;;;;;;;4.22;3.03;;;;;;;21.38;57.20;102705.34;4939189;29;20082;-80
2021/08/31 07:56:35;;;;;;;5.32;3.72;;;;;;;21.47;56.80;102720.38;4923340;29;20122;-80
2021/08/31 07:59:00;;;;;;;4.22;3.20;;;;;;;21.48;56.91;102715.97;4923360;29;20497;-82
2021/08/31 08:01:26;;;;;;;4.75;3.38;;;;;;;21.49;56.70;102721.28;4923142;29;20027;-82
2021/08/31 08:03:51;;;;;;;4.70;2.78;;;;;;;21.52;56.88;102723.94;4923357;29;20447;-80
2021/08/31 08:06:17;;;;;;;4.88;2.90;;;;;;;21.52;56.92;102721.31;4907350;29;20035;-81
2021/08/31 08:08:42;;;;;;;5.63;3.35;;;;;;;21.49;56.80;102715.13;4907276;29;20039;-80
2021/08/31 08:11:07;;;;;;;4.10;3.00;;;;;;;21.40;56.83;102702.75;4922878;29;20372;-80
2021/08/31 08:13:33;;;;;;;4.97;3.50;;;;;;;21.53;57.11;102723.09;4938747;29;20038;-81
2021/08/31 08:15:58;;;;;;;3.75;3.00;;;;;;;21.51;57.04;102709.00;4907060;29;20058;-79
2021/08/31 08:18:24;;;;;;;6.68;3.83;;;;;;;21.49;57.01;102718.63;4907099;29;20036;-79
2021/08/31 08:20:49;;;;;;;4.13;2.75;;;;;;;21.46;57.00;102715.06;4938567;29;20470;-81
2021/08/31 08:23:15;;;;;;;6.55;3.25;;;;;;;21.48;57.12;102730.03;4922405;29;20078;-81
2021/08/31 08:25:41;;;;;;;4.63;3.65;;;;;;;21.46;57.03;102730.88;4939932;29;20024;-81
2021/08/31 08:28:06;;;;;;;5.00;3.10;;;;;;;21.43;57.11;102723.81;4922936;29;20103;-79
2021/08/31 08:30:32;;;;;;;5.00;3.15;;;;;;;21.44;57.04;102722.94;4906933;29;20051;-81
2021/08/31 08:32:57;;;;;;;5.40;3.58;;;;;;;21.46;57.25;102734.38;4940759;29;20489;-80
2021/08/31 08:35:25;;;;;;;5.18;3.78;;;;;;;21.43;57.17;102736.09;4908786;29;20083;-80
2021/08/31 08:37:50;;;;;;;4.45;3.00;;;;;;;21.41;57.33;102736.09;4924683;29;20023;-80
2021/08/31 08:40:16;;;;;;;5.70;3.70;;;;;;;21.38;57.59;102734.31;4924633;29;20386;-76
2021/08/31 08:42:41;;;;;;;5.38;3.22;;;;;;;21.39;57.32;102738.69;4924346;29;20070;-81
2021/08/31 08:45:07;;;;;;;5.25;2.97;;;;;;;21.38;57.12;102742.19;4907908;29;20028;-80
2021/08/31 08:47:33;;;;;;;4.85;3.80;;;;;;;21.42;57.29;102745.75;4923867;29;20032;-80
2021/08/31 08:49:59;;;;;;;5.53;3.78;;;;;;;21.40;57.32;102750.13;4908494;29;20036;-79
2021/08/31 08:52:25;;;;;;;4.45;3.80;;;;;;;21.42;57.20;102751.03;4907790;29;20036;-81
2021/08/31 08:54:51;;;;;;;4.70;3.80;;;;;;;21.40;57.30;102755.38;4939614;29;20052;-81
2021/08/31 08:57:18;;;;;;;5.82;3.38;;;;;;;21.35;57.11;102749.16;4939679;29;20421;-80
2021/08/31 08:59:43;;;;;;;4.65;3.45;;;;;;;21.40;57.25;102755.38;4938851;29;20028;-80
2021/08/31 09:02:09;;;;;;;4.55;3.03;;;;;;;21.43;57.16;102757.16;4923002;29;20533;-79
2021/08/31 09:04:43;;;;;;;5.60;3.60;;;;;;;21.37;57.14;102747.44;4938498;29;20118;-79
2021/08/31 09:07:23;;;;;;;5.93;3.53;;;;;;;21.42;57.07;102751.03;4938697;29;20028;-79
2021/08/31 09:10:08;;;;;;;5.50;3.28;;;;;;;21.44;57.30;102759.81;4938296;29;20024;-79
2021/08/31 09:12:34;;;;;;;5.32;2.80;;;;;;;21.38;57.24;102754.47;4938364;29;20027;-80
2021/08/31 09:15:20;;;;;;;4.35;2.83;;;;;;;21.44;57.10;102758.91;4937917;29;20023;-81
2021/08/31 09:18:07;;;;;;;6.57;3.63;;;;;;;21.44;57.19;102757.16;4938017;29;20423;-80
2021/08/31 09:20:39;;;;;;;4.60;3.50;;;;;;;21.42;57.08;102755.41;4937394;29;20095;-80
2021/08/31 09:23:06;;;;;;;4.57;2.78;;;;;;;21.38;57.25;102755.34;4922267;29;20066;-80
2021/08/31 09:25:43;;;;;;;6.70;3.67;;;;;;;21.42;57.15;102769.44;4921544;29;20139;-80
2021/08/31 09:28:22;;;;;;;4.85;2.95;;;;;;;21.43;57.09;102765.94;4937099;29;20019;-80
2021/08/31 09:31:05;;;;;;;5.82;3.25;;;;;;;21.41;57.19;102765.06;4937069;29;20386;-80
2021/08/31 09:33:41;;;;;;;;;;;;;;;21.44;57.19;102767.69;4937496;29;20462;-81
2021/08/31 09:36:19;;;;;;;4.70;2.97;;;;;;;21.45;57.16;102769.47;4936971;29;19911;-79
2021/08/31 09:38:55;;;;;;;3.72;3.00;;;;;;;21.38;57.09;102754.47;4937052;29;20031;-79
2021/08/31 09:41:27;;;;;;;4.68;2.90;;;;;;;21.39;57.04;102757.13;4936844;29;20024;-79
2021/08/31 09:43:52;;;;;;;4.35;3.15;;;;;;;21.32;56.98;102747.38;4936977;29;20032;-81
2021/08/31 09:46:18;;;;;;;3.92;2.90;;;;;;;21.47;57.03;102772.13;4936716;29;20027;-79
2021/08/31 09:48:43;;;;;;;4.93;3.60;;;;;;;21.46;57.24;102762.47;4937079;29;20348;-78
2021/08/31 09:51:14;;;;;;;5.43;3.40;;;;;;;21.49;56.90;102768.66;4905701;29;20063;-78
2021/08/31 09:53:40;;;;;;;5.15;3.63;;;;;;;21.41;57.03;102751.88;4937302;29;20036;-79
2021/08/31 09:56:08;;;;;;;4.32;2.95;;;;;;;21.56;56.93;102766.97;4938578;29;20027;-80
2021/08/31 09:58:36;;;;;;;5.93;3.13;;;;;;;21.52;56.94;102760.81;4937078;29;20124;-79
2021/08/31 10:01:03;;;;;;;4.35;3.30;;;;;;;21.52;56.88;102760.81;4921500;29;20117;-80
2021/08/31 10:03:29;;;;;;;5.70;3.25;;;;;;;21.54;57.02;102761.72;4937081;29;20079;-79
2021/08/31 10:05:57;;;;;;;3.03;2.25;;;;;;;21.58;56.75;102767.88;4937047;29;20118;-79
2021/08/31 10:08:22;;;;;;;5.82;3.38;;;;;;;21.56;56.83;102757.31;4921586;29;20031;-81
2021/08/31 10:10:53;;;;;;;5.72;3.80;;;;;;;21.60;56.82;102761.78;4920896;29;20483;-79
2021/08/31 10:13:21;;;;;;;4.53;3.20;;;;;;;21.61;56.65;102755.66;4937056;29;20035;-81
2021/08/31 10:15:53;;;;;;;4.15;2.88;;;;;;;21.60;57.02;102767.03;4936448;29;20359;-80
2021/08/31 10:18:21;;;;;;;5.47;3.50;;;;;;;21.57;56.83;102753.81;4905070;29;20024;-81
2021/08/31 10:20:54;;;;;;;5.13;3.28;;;;;;;21.60;56.77;102772.31;4921337;29;20032;-80
2021/08/31 10:23:39;;;;;;;;;;;;;;;21.62;56.87;102772.31;4938416;29;20030;-81
2021/08/31 10:26:22;;;;;;;;;;;;;;;21.62;56.87;102774.97;4921015;29;19915;-80
2021/08/31 10:28:49;;;;;;;4.63;3.22;;;;;;;21.63;56.59;102774.09;4937877;29;19919;-80
2021/08/31 10:31:31;;;;;;;4.60;2.88;;;;;;;21.64;56.70;102778.50;4904799;29;20068;-81
2021/08/31 10:33:57;;;;;;;4.32;2.97;;;;;;;21.65;56.61;102786.44;4904855;29;20238;-81
2021/08/31 10:36:37;;;;;;;5.40;3.47;;;;;;;21.60;56.80;102790.72;4904614;29;20141;-79
2021/08/31 10:39:06;;;;;;;4.38;2.22;;;;;;;21.56;56.71;102781.00;4920456;29;20028;-79
2021/08/31 10:41:42;;;;;;;4.35;2.65;;;;;;;21.60;56.80;102787.22;4920242;29;20534;-80
2021/08/31 10:44:12;;;;;;;3.20;2.50;;;;;;;21.59;56.79;102795.97;4920362;29;20063;-80
2021/08/31 10:46:56;;;;;;;3.80;2.88;;;;;;;21.62;56.84;102793.38;4921048;29;20031;-79
2021/08/31 10:49:21;;;;;;;4.65;3.42;;;;;;;21.57;56.80;102793.31;4920529;29;20553;-78
2021/08/31 10:52:02;;;;;;;4.57;3.05;;;;;;;21.61;56.77;102795.13;4920097;29;20175;-77
2021/08/31 10:54:48;;;;;;;8.70;2.97;;;;;;;21.61;56.78;102800.41;4937450;29;20038;-79
2021/08/31 10:57:35;;;;;;;5.20;2.90;;;;;;;21.61;56.86;102803.03;4920001;29;20023;-77
2021/08/31 11:00:17;;;;;;;3.90;3.10;;;;;;;21.55;56.76;102794.19;4919947;29;20035;-79
2021/08/31 11:02:48;;;;;;;5.13;2.85;;;;;;;21.59;56.78;102815.28;4937364;29;20033;-80
2021/08/31 11:05:25;;;;;;;4.38;3.10;;;;;;;21.59;56.94;102814.41;4920238;29;20028;-80
2021/08/31 11:07:56;;;;;;;4.47;2.30;;;;;;;21.58;56.92;102812.63;4921197;29;20038;-79
2021/08/31 11:10:40;;;;;;;3.60;2.80;;;;;;;21.57;57.25;102813.50;4921710;29;20027;-80
2021/08/31 11:13:10;;;;;;;3.65;2.78;;;;;;;21.59;56.92;102815.28;4921620;29;20031;-77
2021/08/31 11:15:36;;;;;;;5.88;3.22;;;;;;;21.57;56.88;102818.75;4921352;29;20390;-79
2021/08/31 11:18:07;;;;;;;3.63;2.72;;;;;;;21.60;56.97;102819.69;4924551;29;20027;-75
2021/08/31 11:20:34;;;;;;;4.55;3.30;;;;;;;21.61;56.79;102813.56;4926185;29;20031;-77
2021/08/31 11:23:03;;;;;;;3.95;2.85;;;;;;;21.62;56.65;102820.59;4920917;29;20024;-78
2021/08/31 11:25:43;;;;;;;5.88;3.58;;;;;;;21.63;56.57;102809.22;4919705;29;20039;-79